»·PEaware :: N100CC NV02-KPVF

N100CC :: NV02-KPVF

FLIGHT INFORMATION

Flight Status: Arrived
Operator: Privately registered:
United States
More flights under this callsign
Pilot: Dan A. (12711)
Aircraft: CESSNA 208 CARAVAN
(C208)
More flights by this aircraft type
Origin: NV02 O'Toole Ranch
United States
Destination: KPVF Placerville
United States
More flights between these airports :: More routes between these airports
Route: +VFR DIRECT
File this flight plan on PilotEdge
Remarks:
Altitude:
(Current/Filed)
14,500ft
Speed:
(Current/Filed)
110kts
Departed: 18-Feb-18 06:30 PM
Arrived: 18-Feb-18 07:56 PM
Distance/Time
Traveled:
156nm/1:25
Distance/Time
To Go:
Arrived

Flight Plot

Page will automatically refresh every two minutes.

Flight plan parsing failed; only flown route is shown


Map Options




Map Legend


Flown Route
Filed Route
Departure Airport
Arrival Airport
Navaid (VOR, NDB)
Fix

Horizontal Profiles

Position Reports

Time Latitude Longitude Heading Altitude Ground
Speed
18-Feb-18 18:36 38.687519 -117.507110 265 12535ft 92kts
18-Feb-18 18:37 38.679683 -117.540257 254 12500ft 101kts
18-Feb-18 18:38 38.678252 -117.576767 249 12480ft 102kts
18-Feb-18 18:39 38.673883 -117.613033 249 12472ft 103kts
18-Feb-18 18:40 38.667568 -117.649041 261 12432ft 106kts
18-Feb-18 18:41 38.659215 -117.685183 252 12454ft 109kts
18-Feb-18 18:42 38.649357 -117.722250 251 12458ft 115kts
18-Feb-18 18:43 38.638942 -117.760754 252 12458ft 114kts
18-Feb-18 18:44 38.628526 -117.799440 252 12446ft 115kts
18-Feb-18 18:45 38.618119 -117.837993 252 12444ft 114kts
18-Feb-18 18:46 38.607690 -117.876577 251 12441ft 115kts
18-Feb-18 18:47 38.597136 -117.915503 255 12418ft 116kts
18-Feb-18 18:48 38.586563 -117.954540 256 12407ft 116kts
18-Feb-18 18:49 38.575938 -117.993684 256 12400ft 116kts
18-Feb-18 18:50 38.566412 -118.033093 276 12391ft 115kts
18-Feb-18 18:51 38.582196 -118.070223 290 12401ft 119kts
18-Feb-18 18:52 38.598902 -118.107159 289 12404ft 120kts
18-Feb-18 18:53 38.615563 -118.144070 291 12404ft 118kts
18-Feb-18 18:54 38.631846 -118.180175 291 12405ft 117kts
18-Feb-18 18:55 38.648067 -118.216193 291 12405ft 116kts
18-Feb-18 18:56 38.664267 -118.252204 291 12405ft 116kts
18-Feb-18 18:57 38.680329 -118.287949 291 12408ft 116kts
18-Feb-18 18:58 38.696470 -118.323907 292 12407ft 116kts
18-Feb-18 18:59 38.712485 -118.359629 293 12409ft 115kts
18-Feb-18 19:00 38.728238 -118.394804 294 12415ft 113kts
18-Feb-18 19:01 38.743900 -118.429809 294 12414ft 113kts
18-Feb-18 19:02 38.759616 -118.464982 293 12413ft 113kts
18-Feb-18 19:03 38.775295 -118.500110 293 12411ft 113kts
18-Feb-18 19:04 38.790999 -118.535334 293 12411ft 113kts
18-Feb-18 19:05 38.806410 -118.569921 292 12409ft 109kts
18-Feb-18 19:06 38.821395 -118.603653 294 12414ft 108kts
18-Feb-18 19:07 38.836317 -118.637200 293 12417ft 108kts
18-Feb-18 19:08 38.851574 -118.671445 283 12415ft 117kts
18-Feb-18 19:09 38.868570 -118.709975 283 12432ft 127kts
18-Feb-18 19:10 38.885495 -118.748081 285 12424ft 121kts
18-Feb-18 19:11 38.902284 -118.786071 285 12426ft 122kts
18-Feb-18 19:12 38.917471 -118.820805 306 12434ft 118kts
18-Feb-18 19:13 38.933109 -118.855905 304 12454ft 111kts
18-Feb-18 19:14 38.948439 -118.890647 305 12454ft 111kts
18-Feb-18 19:15 38.963676 -118.925245 304 12453ft 111kts
18-Feb-18 19:16 38.979146 -118.959614 312 12451ft 109kts
18-Feb-18 19:17 39.000460 -118.987446 317 12452ft 109kts
18-Feb-18 19:18 39.022215 -119.014598 317 12452ft 109kts
18-Feb-18 19:19 39.044902 -119.042871 306 12470ft 116kts
18-Feb-18 19:20 39.068766 -119.072660 301 12491ft 123kts
18-Feb-18 19:21 39.094188 -119.104459 301 12492ft 129kts
18-Feb-18 19:22 39.120103 -119.136860 301 12497ft 130kts
18-Feb-18 19:23 39.146070 -119.169365 301 12498ft 130kts
18-Feb-18 19:24 39.172139 -119.202038 300 12489ft 130kts
18-Feb-18 19:25 39.198037 -119.234532 301 12487ft 129kts
18-Feb-18 19:26 39.215717 -119.270728 274 12558ft 137kts
18-Feb-18 19:27 39.200253 -119.318735 260 12588ft 139kts
18-Feb-18 19:28 39.186076 -119.364017 260 12527ft 132kts
18-Feb-18 19:29 39.172838 -119.407026 259 12520ft 126kts
18-Feb-18 19:30 39.163450 -119.448241 260 12495ft 115kts
18-Feb-18 19:31 39.155550 -119.487973 260 12496ft 113kts
18-Feb-18 19:32 39.147555 -119.527502 260 12495ft 113kts
18-Feb-18 19:33 39.135309 -119.567394 260 12531ft 125kts
18-Feb-18 19:34 39.119990 -119.608901 260 12535ft 130kts
18-Feb-18 19:35 39.103724 -119.650813 260 12539ft 131kts
18-Feb-18 19:36 39.087336 -119.692604 260 12532ft 129kts
18-Feb-18 19:37 39.071486 -119.733742 260 12526ft 126kts
18-Feb-18 19:38 39.057311 -119.773643 256 12536ft 115kts
18-Feb-18 19:39 39.052402 -119.812463 260 12512ft 106kts
18-Feb-18 19:40 39.047560 -119.849913 260 12514ft 105kts
18-Feb-18 19:41 39.043343 -119.887155 260 12514ft 104kts
18-Feb-18 19:42 39.040618 -119.921259 259 12518ft 102kts
18-Feb-18 19:43 39.043067 -119.960492 258 12498ft 118kts
18-Feb-18 19:44 39.052037 -120.008997 289 12319ft 194kts
18-Feb-18 19:45 39.036917 -120.085609 259 12492ft 233kts
18-Feb-18 19:46 39.029657 -120.165529 259 12185ft 211kts
18-Feb-18 19:47 39.034650 -120.230460 221 11571ft 131kts
18-Feb-18 19:48 39.001828 -120.255520 226 10826ft 142kts
18-Feb-18 19:49 38.974282 -120.278827 238 9607ft 142kts
18-Feb-18 19:50 38.947313 -120.321057 241 8455ft 105kts
18-Feb-18 19:51 38.930248 -120.359422 229 8494ft 138kts
18-Feb-18 19:52 38.909684 -120.391795 235 8493ft 142kts
18-Feb-18 19:53 38.890318 -120.446017 246 8507ft 142kts
18-Feb-18 19:54 38.873957 -120.482468 228 8573ft 152kts
18-Feb-18 19:55 38.845002 -120.525453 240 7917ft 149kts
18-Feb-18 19:56 38.821197 -120.576000 235 6209ft 154kts
18-Feb-18 19:57 38.802992 -120.619052 220 4750ft 155kts
18-Feb-18 19:58 38.770237 -120.645652 201 4270ft 127kts
18-Feb-18 19:59 38.734477 -120.650964 174 4018ft 140kts
18-Feb-18 20:00 38.698290 -120.656004 208 4001ft 129kts
18-Feb-18 20:01 38.694721 -120.693916 268 3242ft 88kts
18-Feb-18 20:02 38.695327 -120.723235 284 2697ft 82kts
18-Feb-18 20:03 38.696682 -120.734483 256 2605ft 11kts
18-Feb-18 20:04 38.697497 -120.733172 171 2605ft 7kts
18-Feb-18 20:05 38.697316 -120.732965 105 2605ft 0kts

Navigation Log

Ident Type
Flight plan parsing failed, navigation log unavailable